sensor_id;sensor_type;location;lat;lon;timestamp;temperature;humidity
1337;DHT22;662;48.814;9.318;2023-03-23T00:01:48;16.10;49.50
1337;DHT22;662;48.814;9.318;2023-03-23T00:04:17;16.00;49.00
1337;DHT22;662;48.814;9.318;2023-03-23T00:06:43;16.00;47.50
1337;DHT22;662;48.814;9.318;2023-03-23T00:09:12;16.00;47.00
1337;DHT22;662;48.814;9.318;2023-03-23T00:11:37;15.90;46.80
1337;DHT22;662;48.814;9.318;2023-03-23T00:14:04;16.00;47.40
1337;DHT22;662;48.814;9.318;2023-03-23T00:16:32;16.00;46.30
1337;DHT22;662;48.814;9.318;2023-03-23T00:19:01;16.00;46.40
1337;DHT22;662;48.814;9.318;2023-03-23T00:21:30;16.10;45.80
1337;DHT22;662;48.814;9.318;2023-03-23T00:24:11;16.10;45.50
1337;DHT22;662;48.814;9.318;2023-03-23T00:26:39;16.10;45.70
1337;DHT22;662;48.814;9.318;2023-03-23T00:29:16;16.10;45.40
1337;DHT22;662;48.814;9.318;2023-03-23T00:31:43;16.20;45.60
1337;DHT22;662;48.814;9.318;2023-03-23T00:34:13;16.20;45.50
1337;DHT22;662;48.814;9.318;2023-03-23T00:36:43;16.30;45.50
1337;DHT22;662;48.814;9.318;2023-03-23T00:39:10;16.20;45.20
1337;DHT22;662;48.814;9.318;2023-03-23T00:41:35;16.20;45.00
1337;DHT22;662;48.814;9.318;2023-03-23T00:44:02;16.20;44.90
1337;DHT22;662;48.814;9.318;2023-03-23T00:46:28;16.20;44.90
1337;DHT22;662;48.814;9.318;2023-03-23T00:48:56;16.20;44.80
1337;DHT22;662;48.814;9.318;2023-03-23T00:51:23;16.20;44.60
1337;DHT22;662;48.814;9.318;2023-03-23T00:53:49;16.30;44.80
1337;DHT22;662;48.814;9.318;2023-03-23T00:56:15;16.20;44.90
1337;DHT22;662;48.814;9.318;2023-03-23T00:58:41;16.30;44.90
1337;DHT22;662;48.814;9.318;2023-03-23T01:01:07;16.20;44.80
1337;DHT22;662;48.814;9.318;2023-03-23T01:03:34;16.20;44.90
1337;DHT22;662;48.814;9.318;2023-03-23T01:06:08;16.20;44.80
1337;DHT22;662;48.814;9.318;2023-03-23T01:08:38;16.20;44.40
1337;DHT22;662;48.814;9.318;2023-03-23T01:11:12;16.20;44.40
1337;DHT22;662;48.814;9.318;2023-03-23T01:13:38;16.10;44.50
1337;DHT22;662;48.814;9.318;2023-03-23T01:16:05;16.10;44.70
1337;DHT22;662;48.814;9.318;2023-03-23T01:18:31;16.10;44.80
1337;DHT22;662;48.814;9.318;2023-03-23T01:20:57;16.10;45.00
1337;DHT22;662;48.814;9.318;2023-03-23T01:23:23;16.10;44.80
1337;DHT22;662;48.814;9.318;2023-03-23T01:25:49;16.10;44.80
1337;DHT22;662;48.814;9.318;2023-03-23T01:28:15;16.00;44.80
1337;DHT22;662;48.814;9.318;2023-03-23T01:30:41;16.00;44.70
1337;DHT22;662;48.814;9.318;2023-03-23T01:33:06;16.00;45.20
1337;DHT22;662;48.814;9.318;2023-03-23T01:35:32;16.00;44.70
1337;DHT22;662;48.814;9.318;2023-03-23T01:37:58;16.00;44.70
1337;DHT22;662;48.814;9.318;2023-03-23T01:40:26;16.00;45.30
1337;DHT22;662;48.814;9.318;2023-03-23T01:42:51;16.00;44.70
1337;DHT22;662;48.814;9.318;2023-03-23T01:53:28;16.00;44.50
1337;DHT22;662;48.814;9.318;2023-03-23T01:55:56;16.00;44.30
1337;DHT22;662;48.814;9.318;2023-03-23T01:58:27;16.00;44.20
1337;DHT22;662;48.814;9.318;2023-03-23T02:00:55;16.00;44.20
1337;DHT22;662;48.814;9.318;2023-03-23T02:03:22;16.10;44.30
1337;DHT22;662;48.814;9.318;2023-03-23T02:05:49;16.10;44.10
1337;DHT22;662;48.814;9.318;2023-03-23T02:08:16;16.10;44.00
1337;DHT22;662;48.814;9.318;2023-03-23T02:10:43;16.10;44.00
1337;DHT22;662;48.814;9.318;2023-03-23T02:13:10;16.10;44.60
1337;DHT22;662;48.814;9.318;2023-03-23T02:22:18;16.10;44.00
1337;DHT22;662;48.814;9.318;2023-03-23T02:24:51;16.10;44.00
1337;DHT22;662;48.814;9.318;2023-03-23T02:35:38;16.10;43.90
1337;DHT22;662;48.814;9.318;2023-03-23T02:38:15;16.10;44.00
1337;DHT22;662;48.814;9.318;2023-03-23T02:40:46;16.10;44.10
1337;DHT22;662;48.814;9.318;2023-03-23T02:43:16;16.20;44.30
1337;DHT22;662;48.814;9.318;2023-03-23T02:45:44;16.20;44.40
1337;DHT22;662;48.814;9.318;2023-03-23T02:48:13;16.20;44.40
1337;DHT22;662;48.814;9.318;2023-03-23T02:50:43;16.20;44.50
1337;DHT22;662;48.814;9.318;2023-03-23T02:53:12;16.20;44.50
1337;DHT22;662;48.814;9.318;2023-03-23T02:55:41;16.30;44.70
1337;DHT22;662;48.814;9.318;2023-03-23T02:58:12;16.20;44.60
1337;DHT22;662;48.814;9.318;2023-03-23T03:00:38;16.20;44.70
1337;DHT22;662;48.814;9.318;2023-03-23T03:03:05;16.20;44.80
1337;DHT22;662;48.814;9.318;2023-03-23T03:05:52;16.20;44.80
1337;DHT22;662;48.814;9.318;2023-03-23T03:08:28;16.20;44.80
1337;DHT22;662;48.814;9.318;2023-03-23T03:11:12;16.20;44.80
1337;DHT22;662;48.814;9.318;2023-03-23T03:14:06;16.20;45.40
1337;DHT22;662;48.814;9.318;2023-03-23T03:19:10;16.10;44.90
1337;DHT22;662;48.814;9.318;2023-03-23T03:21:41;16.10;45.00
1337;DHT22;662;48.814;9.318;2023-03-23T03:24:08;16.20;44.90
1337;DHT22;662;48.814;9.318;2023-03-23T03:26:38;16.20;44.80
1337;DHT22;662;48.814;9.318;2023-03-23T03:29:05;16.20;44.60
1337;DHT22;662;48.814;9.318;2023-03-23T03:31:38;16.20;44.60
1337;DHT22;662;48.814;9.318;2023-03-23T03:34:05;16.20;44.40
1337;DHT22;662;48.814;9.318;2023-03-23T03:36:33;16.20;44.40
1337;DHT22;662;48.814;9.318;2023-03-23T03:39:03;16.20;44.60
1337;DHT22;662;48.814;9.318;2023-03-23T03:41:34;16.20;44.40
1337;DHT22;662;48.814;9.318;2023-03-23T03:44:00;16.20;44.50
1337;DHT22;662;48.814;9.318;2023-03-23T03:46:26;16.30;44.50
1337;DHT22;662;48.814;9.318;2023-03-23T03:48:55;16.20;44.40
1337;DHT22;662;48.814;9.318;2023-03-23T03:51:22;16.20;44.60
1337;DHT22;662;48.814;9.318;2023-03-23T03:53:48;16.20;44.40
1337;DHT22;662;48.814;9.318;2023-03-23T03:56:13;16.30;44.50
1337;DHT22;662;48.814;9.318;2023-03-23T03:58:39;16.30;44.50
1337;DHT22;662;48.814;9.318;2023-03-23T04:01:08;16.30;44.60
1337;DHT22;662;48.814;9.318;2023-03-23T04:03:36;16.30;44.80
1337;DHT22;662;48.814;9.318;2023-03-23T04:06:02;16.30;44.90
1337;DHT22;662;48.814;9.318;2023-03-23T04:08:28;16.30;44.80
1337;DHT22;662;48.814;9.318;2023-03-23T04:10:54;16.30;44.80
1337;DHT22;662;48.814;9.318;2023-03-23T04:13:20;16.30;44.80
1337;DHT22;662;48.814;9.318;2023-03-23T04:15:47;16.30;44.90
1337;DHT22;662;48.814;9.318;2023-03-23T04:18:14;16.30;44.90
1337;DHT22;662;48.814;9.318;2023-03-23T04:20:43;16.40;44.90
1337;DHT22;662;48.814;9.318;2023-03-23T04:23:10;16.40;44.90
1337;DHT22;662;48.814;9.318;2023-03-23T04:25:35;16.40;45.00
1337;DHT22;662;48.814;9.318;2023-03-23T04:28:01;16.40;45.10
1337;DHT22;662;48.814;9.318;2023-03-23T04:30:28;16.40;45.00
1337;DHT22;662;48.814;9.318;2023-03-23T04:32:55;16.40;45.00
1337;DHT22;662;48.814;9.318;2023-03-23T04:35:23;16.40;45.10
1337;DHT22;662;48.814;9.318;2023-03-23T04:37:53;16.40;45.10
1337;DHT22;662;48.814;9.318;2023-03-23T04:40:19;16.30;45.10
1337;DHT22;662;48.814;9.318;2023-03-23T04:42:46;16.40;45.10
1337;DHT22;662;48.814;9.318;2023-03-23T04:45:17;16.40;45.20
1337;DHT22;662;48.814;9.318;2023-03-23T04:47:49;16.40;45.20
1337;DHT22;662;48.814;9.318;2023-03-23T04:50:21;16.40;45.20
1337;DHT22;662;48.814;9.318;2023-03-23T04:52:49;16.40;45.10
1337;DHT22;662;48.814;9.318;2023-03-23T04:55:17;16.40;45.10
1337;DHT22;662;48.814;9.318;2023-03-23T04:57:43;16.40;45.00
1337;DHT22;662;48.814;9.318;2023-03-23T05:00:10;16.40;45.00
1337;DHT22;662;48.814;9.318;2023-03-23T05:02:42;16.40;45.10
1337;DHT22;662;48.814;9.318;2023-03-23T05:05:10;16.40;45.10
1337;DHT22;662;48.814;9.318;2023-03-23T05:07:40;16.40;45.10
1337;DHT22;662;48.814;9.318;2023-03-23T05:10:07;16.40;45.20
1337;DHT22;662;48.814;9.318;2023-03-23T05:12:34;16.50;45.20
1337;DHT22;662;48.814;9.318;2023-03-23T05:14:59;16.40;45.30
1337;DHT22;662;48.814;9.318;2023-03-23T05:17:25;16.50;45.40
1337;DHT22;662;48.814;9.318;2023-03-23T05:19:51;16.50;45.30
1337;DHT22;662;48.814;9.318;2023-03-23T05:22:19;16.50;45.30
1337;DHT22;662;48.814;9.318;2023-03-23T05:24:49;16.50;45.40
1337;DHT22;662;48.814;9.318;2023-03-23T05:27:17;16.50;45.40
1337;DHT22;662;48.814;9.318;2023-03-23T05:29:45;16.50;45.40
1337;DHT22;662;48.814;9.318;2023-03-23T05:32:14;16.40;45.30
1337;DHT22;662;48.814;9.318;2023-03-23T05:34:40;16.40;45.30
1337;DHT22;662;48.814;9.318;2023-03-23T05:37:06;16.40;45.50
1337;DHT22;662;48.814;9.318;2023-03-23T05:39:32;16.40;45.50
1337;DHT22;662;48.814;9.318;2023-03-23T05:41:58;16.40;45.50
1337;DHT22;662;48.814;9.318;2023-03-23T05:44:24;16.40;45.40
1337;DHT22;662;48.814;9.318;2023-03-23T05:46:49;16.40;45.50
1337;DHT22;662;48.814;9.318;2023-03-23T05:49:17;16.40;45.70
1337;DHT22;662;48.814;9.318;2023-03-23T05:51:43;16.40;45.60
1337;DHT22;662;48.814;9.318;2023-03-23T05:54:11;16.40;45.60
1337;DHT22;662;48.814;9.318;2023-03-23T05:56:37;16.40;45.60
1337;DHT22;662;48.814;9.318;2023-03-23T05:59:03;16.40;45.60
1337;DHT22;662;48.814;9.318;2023-03-23T06:01:29;16.40;45.60
1337;DHT22;662;48.814;9.318;2023-03-23T06:03:55;16.40;45.50
1337;DHT22;662;48.814;9.318;2023-03-23T06:06:24;16.50;45.60
1337;DHT22;662;48.814;9.318;2023-03-23T06:08:50;16.50;45.70
1337;DHT22;662;48.814;9.318;2023-03-23T06:11:16;16.50;45.60
1337;DHT22;662;48.814;9.318;2023-03-23T06:13:41;16.50;45.60
1337;DHT22;662;48.814;9.318;2023-03-23T06:16:08;16.50;45.50
1337;DHT22;662;48.814;9.318;2023-03-23T06:18:35;16.60;45.60
1337;DHT22;662;48.814;9.318;2023-03-23T06:21:03;16.60;45.60
1337;DHT22;662;48.814;9.318;2023-03-23T06:23:29;16.60;45.60
1337;DHT22;662;48.814;9.318;2023-03-23T06:26:01;16.60;45.60
1337;DHT22;662;48.814;9.318;2023-03-23T06:28:27;16.60;45.50
1337;DHT22;662;48.814;9.318;2023-03-23T06:30:53;16.70;45.70
1337;DHT22;662;48.814;9.318;2023-03-23T06:33:19;16.60;45.60
1337;DHT22;662;48.814;9.318;2023-03-23T06:35:45;16.70;45.60
1337;DHT22;662;48.814;9.318;2023-03-23T06:38:10;16.70;45.80
1337;DHT22;662;48.814;9.318;2023-03-23T06:40:36;16.60;45.70
1337;DHT22;662;48.814;9.318;2023-03-23T06:43:02;16.60;45.60
1337;DHT22;662;48.814;9.318;2023-03-23T06:45:29;16.60;45.60
1337;DHT22;662;48.814;9.318;2023-03-23T06:47:55;16.60;45.20
1337;DHT22;662;48.814;9.318;2023-03-23T06:50:21;16.60;45.30
1337;DHT22;662;48.814;9.318;2023-03-23T06:52:47;16.60;45.40
1337;DHT22;662;48.814;9.318;2023-03-23T06:55:14;16.70;45.60
1337;DHT22;662;48.814;9.318;2023-03-23T06:57:40;16.70;46.10
1337;DHT22;662;48.814;9.318;2023-03-23T07:00:07;16.70;46.50
1337;DHT22;662;48.814;9.318;2023-03-23T07:02:34;16.70;46.60
1337;DHT22;662;48.814;9.318;2023-03-23T07:05:01;16.70;46.30
1337;DHT22;662;48.814;9.318;2023-03-23T07:07:28;16.80;46.10
1337;DHT22;662;48.814;9.318;2023-03-23T07:09:55;16.90;46.00
1337;DHT22;662;48.814;9.318;2023-03-23T07:12:20;16.90;45.80
1337;DHT22;662;48.814;9.318;2023-03-23T07:14:47;17.00;45.50
1337;DHT22;662;48.814;9.318;2023-03-23T07:17:12;17.00;45.40
1337;DHT22;662;48.814;9.318;2023-03-23T07:19:38;17.10;45.50
1337;DHT22;662;48.814;9.318;2023-03-23T07:22:05;17.10;45.30
1337;DHT22;662;48.814;9.318;2023-03-23T07:24:31;17.10;44.90
1337;DHT22;662;48.814;9.318;2023-03-23T07:26:57;17.10;45.20
1337;DHT22;662;48.814;9.318;2023-03-23T07:29:23;17.10;45.40
1337;DHT22;662;48.814;9.318;2023-03-23T07:31:49;17.20;45.40
1337;DHT22;662;48.814;9.318;2023-03-23T07:34:14;17.20;45.50
1337;DHT22;662;48.814;9.318;2023-03-23T07:36:40;17.10;45.20
1337;DHT22;662;48.814;9.318;2023-03-23T07:39:06;17.10;45.40
1337;DHT22;662;48.814;9.318;2023-03-23T07:41:33;17.20;45.60
1337;DHT22;662;48.814;9.318;2023-03-23T07:43:59;17.10;45.60
1337;DHT22;662;48.814;9.318;2023-03-23T07:46:24;17.10;45.70
1337;DHT22;662;48.814;9.318;2023-03-23T07:48:50;17.10;45.90
1337;DHT22;662;48.814;9.318;2023-03-23T07:51:16;17.10;46.10
1337;DHT22;662;48.814;9.318;2023-03-23T07:53:43;17.20;46.30
1337;DHT22;662;48.814;9.318;2023-03-23T07:56:13;17.20;46.30
1337;DHT22;662;48.814;9.318;2023-03-23T07:58:41;17.30;46.30
1337;DHT22;662;48.814;9.318;2023-03-23T08:01:07;17.30;46.40
1337;DHT22;662;48.814;9.318;2023-03-23T08:03:33;17.40;46.40
1337;DHT22;662;48.814;9.318;2023-03-23T08:05:59;17.50;46.40
1337;DHT22;662;48.814;9.318;2023-03-23T08:08:26;17.60;46.30
1337;DHT22;662;48.814;9.318;2023-03-23T08:10:51;17.70;46.10
1337;DHT22;662;48.814;9.318;2023-03-23T08:13:17;17.80;46.00
1337;DHT22;662;48.814;9.318;2023-03-23T08:15:43;17.80;45.90
1337;DHT22;662;48.814;9.318;2023-03-23T08:18:10;17.90;46.00
1337;DHT22;662;48.814;9.318;2023-03-23T08:20:36;18.00;46.00
1337;DHT22;662;48.814;9.318;2023-03-23T08:23:02;18.00;46.00
1337;DHT22;662;48.814;9.318;2023-03-23T08:25:29;18.00;46.00
1337;DHT22;662;48.814;9.318;2023-03-23T08:27:57;18.10;46.20
1337;DHT22;662;48.814;9.318;2023-03-23T08:30:23;18.10;46.20
1337;DHT22;662;48.814;9.318;2023-03-23T08:33:18;18.10;46.40
1337;DHT22;662;48.814;9.318;2023-03-23T08:35:44;18.20;46.50
1337;DHT22;662;48.814;9.318;2023-03-23T08:38:12;18.20;46.60
1337;DHT22;662;48.814;9.318;2023-03-23T08:40:39;18.30;46.60
1337;DHT22;662;48.814;9.318;2023-03-23T08:43:06;18.30;46.70
1337;DHT22;662;48.814;9.318;2023-03-23T08:45:32;18.30;46.60
1337;DHT22;662;48.814;9.318;2023-03-23T08:47:57;18.30;46.60
1337;DHT22;662;48.814;9.318;2023-03-23T08:50:28;18.30;46.80
1337;DHT22;662;48.814;9.318;2023-03-23T08:52:56;18.30;46.90
1337;DHT22;662;48.814;9.318;2023-03-23T08:55:22;18.20;46.90
1337;DHT22;662;48.814;9.318;2023-03-23T08:57:48;18.20;47.10
1337;DHT22;662;48.814;9.318;2023-03-23T09:00:18;18.10;47.30
1337;DHT22;662;48.814;9.318;2023-03-23T09:02:49;18.10;47.60
1337;DHT22;662;48.814;9.318;2023-03-23T09:05:16;18.00;47.80
1337;DHT22;662;48.814;9.318;2023-03-23T09:07:45;18.00;48.10
1337;DHT22;662;48.814;9.318;2023-03-23T09:10:11;18.00;48.50
1337;DHT22;662;48.814;9.318;2023-03-23T09:12:38;17.90;48.60
1337;DHT22;662;48.814;9.318;2023-03-23T09:15:05;17.90;48.70
1337;DHT22;662;48.814;9.318;2023-03-23T09:17:37;17.90;48.70
1337;DHT22;662;48.814;9.318;2023-03-23T09:20:05;18.00;48.80
1337;DHT22;662;48.814;9.318;2023-03-23T09:22:42;18.00;48.80
1337;DHT22;662;48.814;9.318;2023-03-23T09:25:09;18.10;48.90
1337;DHT22;662;48.814;9.318;2023-03-23T09:27:36;18.10;48.90
1337;DHT22;662;48.814;9.318;2023-03-23T09:30:06;18.10;48.60
1337;DHT22;662;48.814;9.318;2023-03-23T09:32:33;18.20;48.40
1337;DHT22;662;48.814;9.318;2023-03-23T09:35:01;18.30;48.50
1337;DHT22;662;48.814;9.318;2023-03-23T09:37:27;18.30;48.40
1337;DHT22;662;48.814;9.318;2023-03-23T09:39:53;18.30;48.30
1337;DHT22;662;48.814;9.318;2023-03-23T09:47:30;18.50;48.80
1337;DHT22;662;48.814;9.318;2023-03-23T09:50:21;18.50;48.10
1337;DHT22;662;48.814;9.318;2023-03-23T09:53:10;18.40;47.90
1337;DHT22;662;48.814;9.318;2023-03-23T09:55:38;18.50;48.00
1337;DHT22;662;48.814;9.318;2023-03-23T09:58:12;18.50;47.80
1337;DHT22;662;48.814;9.318;2023-03-23T10:00:47;18.50;47.90
1337;DHT22;662;48.814;9.318;2023-03-23T10:03:17;18.50;48.00
1337;DHT22;662;48.814;9.318;2023-03-23T10:05:49;18.50;47.90
1337;DHT22;662;48.814;9.318;2023-03-23T10:08:20;18.50;47.50
1337;DHT22;662;48.814;9.318;2023-03-23T10:16:24;18.60;48.00
1337;DHT22;662;48.814;9.318;2023-03-23T10:19:02;18.60;47.70
1337;DHT22;662;48.814;9.318;2023-03-23T10:21:31;18.60;47.70
1337;DHT22;662;48.814;9.318;2023-03-23T10:24:03;18.70;47.80
1337;DHT22;662;48.814;9.318;2023-03-23T10:26:33;18.70;48.10
1337;DHT22;662;48.814;9.318;2023-03-23T10:29:36;18.80;48.00
1337;DHT22;662;48.814;9.318;2023-03-23T10:32:10;18.90;47.80
1337;DHT22;662;48.814;9.318;2023-03-23T10:37:25;18.90;47.50
1337;DHT22;662;48.814;9.318;2023-03-23T10:39:53;19.00;47.70
1337;DHT22;662;48.814;9.318;2023-03-23T10:42:34;19.20;48.20
1337;DHT22;662;48.814;9.318;2023-03-23T10:47:51;19.60;47.50
1337;DHT22;662;48.814;9.318;2023-03-23T10:50:23;19.70;47.00
1337;DHT22;662;48.814;9.318;2023-03-23T10:52:51;19.80;46.60
1337;DHT22;662;48.814;9.318;2023-03-23T10:55:20;19.70;46.50
1337;DHT22;662;48.814;9.318;2023-03-23T10:58:03;19.60;46.70
1337;DHT22;662;48.814;9.318;2023-03-23T11:00:30;19.60;47.00
1337;DHT22;662;48.814;9.318;2023-03-23T11:03:02;19.60;47.10
1337;DHT22;662;48.814;9.318;2023-03-23T11:05:40;19.60;47.10
1337;DHT22;662;48.814;9.318;2023-03-23T11:08:15;19.50;46.30
1337;DHT22;662;48.814;9.318;2023-03-23T11:10:50;19.60;46.80
1337;DHT22;662;48.814;9.318;2023-03-23T11:13:17;19.60;47.20
1337;DHT22;662;48.814;9.318;2023-03-23T11:15:44;19.60;47.30
1337;DHT22;662;48.814;9.318;2023-03-23T11:18:23;19.60;47.20
1337;DHT22;662;48.814;9.318;2023-03-23T11:20:57;19.60;47.10
1337;DHT22;662;48.814;9.318;2023-03-23T11:23:30;19.60;47.00
1337;DHT22;662;48.814;9.318;2023-03-23T11:29:14;19.60;46.80
1337;DHT22;662;48.814;9.318;2023-03-23T11:31:49;19.50;47.30
1337;DHT22;662;48.814;9.318;2023-03-23T11:34:20;19.40;47.50
1337;DHT22;662;48.814;9.318;2023-03-23T11:36:55;19.40;47.50
1337;DHT22;662;48.814;9.318;2023-03-23T11:39:29;19.30;47.70
1337;DHT22;662;48.814;9.318;2023-03-23T11:42:10;19.30;47.90
1337;DHT22;662;48.814;9.318;2023-03-23T11:44:41;19.20;47.90
1337;DHT22;662;48.814;9.318;2023-03-23T11:47:28;19.20;48.30
1337;DHT22;662;48.814;9.318;2023-03-23T11:52:34;19.30;48.30
1337;DHT22;662;48.814;9.318;2023-03-23T11:55:14;19.30;48.30
1337;DHT22;662;48.814;9.318;2023-03-23T11:57:41;19.30;48.10
1337;DHT22;662;48.814;9.318;2023-03-23T12:24:41;19.90;48.00
1337;DHT22;662;48.814;9.318;2023-03-23T12:29:51;19.80;47.10
1337;DHT22;662;48.814;9.318;2023-03-23T12:35:49;19.80;47.00
1337;DHT22;662;48.814;9.318;2023-03-23T12:43:50;19.70;45.30
1337;DHT22;662;48.814;9.318;2023-03-23T12:46:32;19.70;45.20
1337;DHT22;662;48.814;9.318;2023-03-23T12:49:04;19.60;45.40
1337;DHT22;662;48.814;9.318;2023-03-23T12:54:21;19.70;45.10
1337;DHT22;662;48.814;9.318;2023-03-23T12:57:05;19.70;45.30
1337;DHT22;662;48.814;9.318;2023-03-23T13:02:21;19.80;45.20
1337;DHT22;662;48.814;9.318;2023-03-23T13:05:02;19.90;46.80
1337;DHT22;662;48.814;9.318;2023-03-23T13:07:33;20.00;47.50
1337;DHT22;662;48.814;9.318;2023-03-23T13:10:44;20.00;48.20
1337;DHT22;662;48.814;9.318;2023-03-23T13:12:50;20.10;48.10
1337;DHT22;662;48.814;9.318;2023-03-23T13:17:58;20.10;46.90
1337;DHT22;662;48.814;9.318;2023-03-23T13:28:28;19.90;47.40
1337;DHT22;662;48.814;9.318;2023-03-23T13:33:35;19.90;49.60
1337;DHT22;662;48.814;9.318;2023-03-23T13:36:14;19.90;49.90
1337;DHT22;662;48.814;9.318;2023-03-23T13:38:47;19.90;50.50
1337;DHT22;662;48.814;9.318;2023-03-23T13:41:16;19.90;50.90
1337;DHT22;662;48.814;9.318;2023-03-23T13:43:42;19.80;50.70
1337;DHT22;662;48.814;9.318;2023-03-23T13:48:43;19.70;50.80
1337;DHT22;662;48.814;9.318;2023-03-23T13:51:32;19.70;50.80
1337;DHT22;662;48.814;9.318;2023-03-23T14:01:53;19.50;51.00
1337;DHT22;662;48.814;9.318;2023-03-23T14:04:19;19.40;51.10
1337;DHT22;662;48.814;9.318;2023-03-23T14:06:49;19.30;51.20
1337;DHT22;662;48.814;9.318;2023-03-23T14:09:16;19.30;51.40
1337;DHT22;662;48.814;9.318;2023-03-23T14:11:49;19.20;51.80
1337;DHT22;662;48.814;9.318;2023-03-23T14:14:32;19.20;51.80
1337;DHT22;662;48.814;9.318;2023-03-23T14:17:13;19.10;52.00
1337;DHT22;662;48.814;9.318;2023-03-23T14:19:41;19.00;51.90
1337;DHT22;662;48.814;9.318;2023-03-23T14:22:22;19.00;52.00
1337;DHT22;662;48.814;9.318;2023-03-23T14:24:48;19.00;52.10
1337;DHT22;662;48.814;9.318;2023-03-23T14:27:20;19.00;52.20
1337;DHT22;662;48.814;9.318;2023-03-23T14:29:46;19.00;52.10
1337;DHT22;662;48.814;9.318;2023-03-23T14:32:23;19.00;52.10
1337;DHT22;662;48.814;9.318;2023-03-23T14:34:52;19.00;52.30
1337;DHT22;662;48.814;9.318;2023-03-23T14:37:18;19.10;52.30
1337;DHT22;662;48.814;9.318;2023-03-23T14:39:48;19.10;52.30
1337;DHT22;662;48.814;9.318;2023-03-23T14:42:17;19.10;52.30
1337;DHT22;662;48.814;9.318;2023-03-23T14:44:47;19.10;52.30
1337;DHT22;662;48.814;9.318;2023-03-23T14:47:23;19.20;52.30
1337;DHT22;662;48.814;9.318;2023-03-23T14:49:55;19.20;52.10
1337;DHT22;662;48.814;9.318;2023-03-23T14:52:24;19.20;51.40
1337;DHT22;662;48.814;9.318;2023-03-23T14:54:51;19.10;47.50
1337;DHT22;662;48.814;9.318;2023-03-23T14:59:50;19.10;45.60
1337;DHT22;662;48.814;9.318;2023-03-23T15:02:27;19.10;45.00
1337;DHT22;662;48.814;9.318;2023-03-23T15:04:57;19.10;45.00
1337;DHT22;662;48.814;9.318;2023-03-23T15:07:29;19.10;45.10
1337;DHT22;662;48.814;9.318;2023-03-23T15:09:56;19.10;44.80
1337;DHT22;662;48.814;9.318;2023-03-23T15:12:26;19.10;44.80
1337;DHT22;662;48.814;9.318;2023-03-23T15:15:02;19.10;44.50
1337;DHT22;662;48.814;9.318;2023-03-23T15:17:29;19.10;44.60
1337;DHT22;662;48.814;9.318;2023-03-23T15:19:56;19.10;44.40
1337;DHT22;662;48.814;9.318;2023-03-23T15:22:28;19.10;44.40
1337;DHT22;662;48.814;9.318;2023-03-23T15:25:17;19.10;44.40
1337;DHT22;662;48.814;9.318;2023-03-23T15:27:54;19.10;44.10
1337;DHT22;662;48.814;9.318;2023-03-23T15:32:55;19.10;43.40
1337;DHT22;662;48.814;9.318;2023-03-23T15:35:23;19.10;43.20
1337;DHT22;662;48.814;9.318;2023-03-23T15:38:01;19.10;43.40
1337;DHT22;662;48.814;9.318;2023-03-23T15:40:33;19.10;43.30
1337;DHT22;662;48.814;9.318;2023-03-23T15:46:00;19.10;43.30
1337;DHT22;662;48.814;9.318;2023-03-23T15:48:29;19.10;43.00
1337;DHT22;662;48.814;9.318;2023-03-23T15:50:55;19.10;42.90
1337;DHT22;662;48.814;9.318;2023-03-23T15:53:31;19.10;43.00
1337;DHT22;662;48.814;9.318;2023-03-23T15:56:04;19.10;42.90
1337;DHT22;662;48.814;9.318;2023-03-23T15:58:31;19.00;42.90
1337;DHT22;662;48.814;9.318;2023-03-23T16:00:57;19.00;43.50
1337;DHT22;662;48.814;9.318;2023-03-23T16:03:34;19.00;43.30
1337;DHT22;662;48.814;9.318;2023-03-23T16:06:02;19.00;43.30
1337;DHT22;662;48.814;9.318;2023-03-23T16:08:28;19.00;43.50
1337;DHT22;662;48.814;9.318;2023-03-23T16:10:54;19.00;43.50
1337;DHT22;662;48.814;9.318;2023-03-23T16:13:19;19.00;43.40
1337;DHT22;662;48.814;9.318;2023-03-23T16:15:46;19.00;43.60
1337;DHT22;662;48.814;9.318;2023-03-23T16:18:20;19.00;43.70
1337;DHT22;662;48.814;9.318;2023-03-23T16:20:49;19.00;43.80
1337;DHT22;662;48.814;9.318;2023-03-23T16:23:15;18.90;43.70
1337;DHT22;662;48.814;9.318;2023-03-23T16:25:41;18.90;43.70
1337;DHT22;662;48.814;9.318;2023-03-23T16:28:13;18.90;43.50
1337;DHT22;662;48.814;9.318;2023-03-23T16:30:40;18.80;43.50
1337;DHT22;662;48.814;9.318;2023-03-23T16:33:06;18.80;43.60
1337;DHT22;662;48.814;9.318;2023-03-23T16:35:32;18.80;43.70
1337;DHT22;662;48.814;9.318;2023-03-23T16:37:58;18.80;43.70
1337;DHT22;662;48.814;9.318;2023-03-23T16:40:24;18.80;43.70
1337;DHT22;662;48.814;9.318;2023-03-23T16:42:50;18.70;43.70
1337;DHT22;662;48.814;9.318;2023-03-23T16:45:16;18.70;43.90
1337;DHT22;662;48.814;9.318;2023-03-23T16:47:43;18.70;44.00
1337;DHT22;662;48.814;9.318;2023-03-23T16:50:12;18.70;43.80
1337;DHT22;662;48.814;9.318;2023-03-23T16:52:39;18.70;43.90
1337;DHT22;662;48.814;9.318;2023-03-23T16:55:07;18.70;44.00
1337;DHT22;662;48.814;9.318;2023-03-23T16:57:33;18.60;44.00
1337;DHT22;662;48.814;9.318;2023-03-23T17:00:03;18.60;44.20
1337;DHT22;662;48.814;9.318;2023-03-23T17:02:30;18.60;44.20
1337;DHT22;662;48.814;9.318;2023-03-23T17:04:56;18.60;44.50
1337;DHT22;662;48.814;9.318;2023-03-23T17:07:23;18.50;44.50
1337;DHT22;662;48.814;9.318;2023-03-23T17:09:48;18.50;44.40
1337;DHT22;662;48.814;9.318;2023-03-23T17:12:14;18.50;44.70
1337;DHT22;662;48.814;9.318;2023-03-23T17:14:40;18.50;45.00
1337;DHT22;662;48.814;9.318;2023-03-23T17:17:06;18.50;45.10
1337;DHT22;662;48.814;9.318;2023-03-23T17:19:32;18.40;45.10
1337;DHT22;662;48.814;9.318;2023-03-23T17:21:58;18.40;45.10
1337;DHT22;662;48.814;9.318;2023-03-23T17:24:23;18.40;45.30
1337;DHT22;662;48.814;9.318;2023-03-23T17:26:49;18.40;45.20
1337;DHT22;662;48.814;9.318;2023-03-23T17:29:15;18.40;45.30
1337;DHT22;662;48.814;9.318;2023-03-23T17:31:40;18.30;45.20
1337;DHT22;662;48.814;9.318;2023-03-23T17:34:06;18.30;45.20
1337;DHT22;662;48.814;9.318;2023-03-23T17:36:32;18.30;45.30
1337;DHT22;662;48.814;9.318;2023-03-23T17:38:58;18.30;45.40
1337;DHT22;662;48.814;9.318;2023-03-23T17:41:24;18.30;45.40
1337;DHT22;662;48.814;9.318;2023-03-23T17:43:49;18.20;45.50
1337;DHT22;662;48.814;9.318;2023-03-23T17:46:15;18.20;45.60
1337;DHT22;662;48.814;9.318;2023-03-23T17:48:41;18.20;45.60
1337;DHT22;662;48.814;9.318;2023-03-23T17:51:06;18.30;45.80
1337;DHT22;662;48.814;9.318;2023-03-23T17:53:33;18.30;45.90
1337;DHT22;662;48.814;9.318;2023-03-23T17:56:03;18.20;45.90
1337;DHT22;662;48.814;9.318;2023-03-23T17:58:29;18.20;46.00
1337;DHT22;662;48.814;9.318;2023-03-23T18:00:55;18.20;46.20
1337;DHT22;662;48.814;9.318;2023-03-23T18:03:21;18.20;46.10
1337;DHT22;662;48.814;9.318;2023-03-23T18:05:48;18.20;46.20
1337;DHT22;662;48.814;9.318;2023-03-23T18:08:16;18.10;46.30
1337;DHT22;662;48.814;9.318;2023-03-23T18:10:41;18.10;46.40
1337;DHT22;662;48.814;9.318;2023-03-23T18:13:08;18.10;46.50
1337;DHT22;662;48.814;9.318;2023-03-23T18:15:34;18.00;46.50
1337;DHT22;662;48.814;9.318;2023-03-23T18:18:03;18.00;46.60
1337;DHT22;662;48.814;9.318;2023-03-23T18:20:30;18.10;46.70
1337;DHT22;662;48.814;9.318;2023-03-23T18:22:56;18.10;46.70
1337;DHT22;662;48.814;9.318;2023-03-23T18:25:23;18.00;46.70
1337;DHT22;662;48.814;9.318;2023-03-23T18:27:49;18.00;46.70
1337;DHT22;662;48.814;9.318;2023-03-23T18:30:14;18.00;46.70